sensor_id;sensor_type;location;lat;lon;timestamp;pressure;altitude;pressure_sealevel;temperature;humidity
6387;BME280;3226;42.162;24.756;2022-12-07T00:01:19;99865.25;;;5.30;99.63
6387;BME280;3226;42.162;24.756;2022-12-07T00:03:49;99864.75;;;5.23;99.33
6387;BME280;3226;42.162;24.756;2022-12-07T00:06:18;99865.28;;;5.14;99.97
6387;BME280;3226;42.162;24.756;2022-12-07T00:08:47;99873.00;;;5.15;100.00
6387;BME280;3226;42.162;24.756;2022-12-07T00:11:18;99877.53;;;4.96;100.00
6387;BME280;3226;42.162;24.756;2022-12-07T00:13:47;99873.69;;;4.87;100.00
6387;BME280;3226;42.162;24.756;2022-12-07T00:16:19;99873.44;;;4.91;100.00
6387;BME280;3226;42.162;24.756;2022-12-07T00:18:48;99861.25;;;5.08;100.00
6387;BME280;3226;42.162;24.756;2022-12-07T00:21:17;99866.19;;;5.29;99.03
6387;BME280;3226;42.162;24.756;2022-12-07T00:23:47;99867.59;;;5.34;98.99
6387;BME280;3226;42.162;24.756;2022-12-07T00:26:19;99864.06;;;5.35;97.79
6387;BME280;3226;42.162;24.756;2022-12-07T00:28:48;99868.25;;;5.38;97.85
6387;BME280;3226;42.162;24.756;2022-12-07T00:31:17;99869.69;;;5.28;97.50
6387;BME280;3226;42.162;24.756;2022-12-07T00:33:46;99864.47;;;5.13;97.98
6387;BME280;3226;42.162;24.756;2022-12-07T00:36:16;99876.22;;;4.88;99.38
6387;BME280;3226;42.162;24.756;2022-12-07T00:38:51;99882.16;;;4.90;100.00
6387;BME280;3226;42.162;24.756;2022-12-07T00:41:22;99868.31;;;4.74;99.76
6387;BME280;3226;42.162;24.756;2022-12-07T00:43:51;99871.19;;;4.53;100.00
6387;BME280;3226;42.162;24.756;2022-12-07T00:46:19;99867.91;;;4.82;100.00
6387;BME280;3226;42.162;24.756;2022-12-07T00:48:49;99858.38;;;4.98;100.00
6387;BME280;3226;42.162;24.756;2022-12-07T00:51:18;99859.88;;;4.86;99.90
6387;BME280;3226;42.162;24.756;2022-12-07T00:53:47;99860.38;;;4.77;100.00
6387;BME280;3226;42.162;24.756;2022-12-07T00:56:16;99866.75;;;4.87;100.00
6387;BME280;3226;42.162;24.756;2022-12-07T00:58:51;99861.63;;;4.70;100.00
6387;BME280;3226;42.162;24.756;2022-12-07T01:01:20;99845.81;;;4.42;100.00
6387;BME280;3226;42.162;24.756;2022-12-07T01:03:48;99867.00;;;4.51;100.00
6387;BME280;3226;42.162;24.756;2022-12-07T01:06:18;99865.25;;;4.67;100.00
6387;BME280;3226;42.162;24.756;2022-12-07T01:08:46;99860.81;;;4.69;100.00
6387;BME280;3226;42.162;24.756;2022-12-07T01:11:16;99865.16;;;4.69;100.00
6387;BME280;3226;42.162;24.756;2022-12-07T01:13:48;99863.25;;;4.56;100.00
6387;BME280;3226;42.162;24.756;2022-12-07T01:16:19;99843.31;;;4.73;99.47
6387;BME280;3226;42.162;24.756;2022-12-07T01:18:49;99853.44;;;4.61;99.25
6387;BME280;3226;42.162;24.756;2022-12-07T01:21:19;99847.16;;;4.33;100.00
6387;BME280;3226;42.162;24.756;2022-12-07T01:23:48;99850.81;;;4.29;100.00
6387;BME280;3226;42.162;24.756;2022-12-07T01:26:18;99846.81;;;4.40;100.00
6387;BME280;3226;42.162;24.756;2022-12-07T01:28:46;99852.66;;;4.27;100.00
6387;BME280;3226;42.162;24.756;2022-12-07T01:31:16;99843.63;;;4.34;100.00
6387;BME280;3226;42.162;24.756;2022-12-07T01:33:48;99849.09;;;4.46;100.00
6387;BME280;3226;42.162;24.756;2022-12-07T01:36:18;99841.31;;;4.62;98.95
6387;BME280;3226;42.162;24.756;2022-12-07T01:38:49;99833.72;;;4.43;98.93
6387;BME280;3226;42.162;24.756;2022-12-07T01:41:19;99833.78;;;4.57;99.38
6387;BME280;3226;42.162;24.756;2022-12-07T01:44:07;99831.19;;;4.57;99.45
6387;BME280;3226;42.162;24.756;2022-12-07T01:46:36;99809.41;;;4.76;98.73
6387;BME280;3226;42.162;24.756;2022-12-07T01:49:08;99817.97;;;4.46;99.71
6387;BME280;3226;42.162;24.756;2022-12-07T01:51:38;99817.38;;;4.41;100.00
6387;BME280;3226;42.162;24.756;2022-12-07T01:54:08;99817.28;;;4.42;100.00
6387;BME280;3226;42.162;24.756;2022-12-07T01:56:40;99822.66;;;4.39;100.00
6387;BME280;3226;42.162;24.756;2022-12-07T01:59:11;99822.13;;;4.16;100.00
6387;BME280;3226;42.162;24.756;2022-12-07T02:01:39;99832.50;;;4.16;100.00
6387;BME280;3226;42.162;24.756;2022-12-07T02:04:09;99826.34;;;4.35;100.00
6387;BME280;3226;42.162;24.756;2022-12-07T02:06:38;99820.22;;;4.36;100.00
6387;BME280;3226;42.162;24.756;2022-12-07T02:09:06;99822.13;;;4.32;100.00
6387;BME280;3226;42.162;24.756;2022-12-07T02:11:34;99823.22;;;4.44;100.00
6387;BME280;3226;42.162;24.756;2022-12-07T02:14:02;99801.31;;;4.50;99.93
6387;BME280;3226;42.162;24.756;2022-12-07T02:16:35;99815.88;;;4.53;99.52
6387;BME280;3226;42.162;24.756;2022-12-07T02:19:29;99814.72;;;4.58;99.92
6387;BME280;3226;42.162;24.756;2022-12-07T02:22:18;99815.28;;;4.63;98.59
6387;BME280;3226;42.162;24.756;2022-12-07T02:24:57;99806.00;;;4.59;98.10
6387;BME280;3226;42.162;24.756;2022-12-07T02:27:41;99798.97;;;4.29;98.84
6387;BME280;3226;42.162;24.756;2022-12-07T02:30:15;99794.47;;;4.17;99.77
6387;BME280;3226;42.162;24.756;2022-12-07T02:32:50;99791.88;;;4.33;100.00
6387;BME280;3226;42.162;24.756;2022-12-07T02:35:25;99777.97;;;4.50;98.59
6387;BME280;3226;42.162;24.756;2022-12-07T02:38:01;99771.47;;;4.43;98.15
6387;BME280;3226;42.162;24.756;2022-12-07T02:40:33;99787.34;;;4.53;98.28
6387;BME280;3226;42.162;24.756;2022-12-07T02:43:07;99794.28;;;4.52;98.11
6387;BME280;3226;42.162;24.756;2022-12-07T02:45:39;99798.06;;;4.30;99.15
6387;BME280;3226;42.162;24.756;2022-12-07T02:48:10;99789.09;;;4.20;100.00
6387;BME280;3226;42.162;24.756;2022-12-07T02:50:44;99794.88;;;4.25;100.00
6387;BME280;3226;42.162;24.756;2022-12-07T02:53:31;99787.91;;;4.42;100.00
6387;BME280;3226;42.162;24.756;2022-12-07T02:56:01;99783.50;;;4.44;99.33
6387;BME280;3226;42.162;24.756;2022-12-07T02:58:39;99774.66;;;4.48;100.00
6387;BME280;3226;42.162;24.756;2022-12-07T03:01:21;99764.44;;;4.45;99.20
6387;BME280;3226;42.162;24.756;2022-12-07T03:04:02;99767.28;;;4.40;100.00
6387;BME280;3226;42.162;24.756;2022-12-07T03:06:37;99769.63;;;4.45;100.00
6387;BME280;3226;42.162;24.756;2022-12-07T03:09:13;99769.09;;;4.54;99.71
6387;BME280;3226;42.162;24.756;2022-12-07T03:11:47;99756.91;;;4.40;99.96
6387;BME280;3226;42.162;24.756;2022-12-07T03:14:19;99773.22;;;4.26;100.00
6387;BME280;3226;42.162;24.756;2022-12-07T03:16:55;99776.56;;;4.28;100.00
6387;BME280;3226;42.162;24.756;2022-12-07T03:19:26;99778.56;;;4.55;100.00
6387;BME280;3226;42.162;24.756;2022-12-07T03:21:57;99752.97;;;4.49;99.79
6387;BME280;3226;42.162;24.756;2022-12-07T03:24:35;99781.16;;;4.55;99.84
6387;BME280;3226;42.162;24.756;2022-12-07T03:27:08;99788.94;;;4.55;100.00
6387;BME280;3226;42.162;24.756;2022-12-07T03:29:44;99783.13;;;4.82;99.02
6387;BME280;3226;42.162;24.756;2022-12-07T03:32:21;99780.53;;;4.82;97.56
6387;BME280;3226;42.162;24.756;2022-12-07T03:34:54;99779.88;;;4.62;98.37
6387;BME280;3226;42.162;24.756;2022-12-07T03:37:32;99779.38;;;4.72;98.80
6387;BME280;3226;42.162;24.756;2022-12-07T03:40:06;99778.31;;;4.44;99.52
6387;BME280;3226;42.162;24.756;2022-12-07T03:42:35;99785.25;;;4.43;99.80
6387;BME280;3226;42.162;24.756;2022-12-07T03:45:04;99780.97;;;4.58;99.29
6387;BME280;3226;42.162;24.756;2022-12-07T03:47:39;99780.56;;;4.50;100.00
6387;BME280;3226;42.162;24.756;2022-12-07T03:50:15;99780.81;;;4.61;99.91
6387;BME280;3226;42.162;24.756;2022-12-07T03:52:52;99783.06;;;4.68;98.47
6387;BME280;3226;42.162;24.756;2022-12-07T03:55:25;99771.13;;;4.49;98.05
6387;BME280;3226;42.162;24.756;2022-12-07T03:57:58;99772.47;;;4.40;99.26
6387;BME280;3226;42.162;24.756;2022-12-07T04:00:28;99766.28;;;4.43;100.00
6387;BME280;3226;42.162;24.756;2022-12-07T04:02:58;99756.97;;;4.23;100.00
6387;BME280;3226;42.162;24.756;2022-12-07T04:05:26;99768.72;;;4.30;99.83
6387;BME280;3226;42.162;24.756;2022-12-07T04:07:55;99765.94;;;4.49;99.24
6387;BME280;3226;42.162;24.756;2022-12-07T04:10:23;99748.44;;;4.37;98.07
6387;BME280;3226;42.162;24.756;2022-12-07T04:12:51;99767.78;;;4.31;98.54
6387;BME280;3226;42.162;24.756;2022-12-07T04:15:19;99766.13;;;4.46;98.91
6387;BME280;3226;42.162;24.756;2022-12-07T04:17:47;99756.03;;;4.56;97.67
6387;BME280;3226;42.162;24.756;2022-12-07T04:20:17;99762.59;;;4.47;98.22
6387;BME280;3226;42.162;24.756;2022-12-07T04:22:45;99755.97;;;4.25;98.70
6387;BME280;3226;42.162;24.756;2022-12-07T04:25:13;99730.63;;;3.98;99.11
6387;BME280;3226;42.162;24.756;2022-12-07T04:27:40;99756.72;;;4.11;99.72
6387;BME280;3226;42.162;24.756;2022-12-07T04:30:09;99760.47;;;4.05;100.00
6387;BME280;3226;42.162;24.756;2022-12-07T04:32:37;99759.56;;;3.90;100.00
6387;BME280;3226;42.162;24.756;2022-12-07T04:35:06;99757.22;;;3.86;100.00
6387;BME280;3226;42.162;24.756;2022-12-07T04:37:35;99760.19;;;4.12;100.00
6387;BME280;3226;42.162;24.756;2022-12-07T04:40:07;99757.16;;;4.19;99.54
6387;BME280;3226;42.162;24.756;2022-12-07T04:42:38;99753.91;;;4.16;99.16
6387;BME280;3226;42.162;24.756;2022-12-07T04:45:07;99763.25;;;4.02;100.00
6387;BME280;3226;42.162;24.756;2022-12-07T04:47:35;99760.06;;;3.97;100.00
6387;BME280;3226;42.162;24.756;2022-12-07T04:50:04;99756.03;;;3.75;100.00
6387;BME280;3226;42.162;24.756;2022-12-07T04:52:32;99769.28;;;3.69;100.00
6387;BME280;3226;42.162;24.756;2022-12-07T04:55:02;99635.81;;;2.79;100.00
6387;BME280;3226;42.162;24.756;2022-12-07T04:57:30;99758.66;;;3.58;100.00
6387;BME280;3226;42.162;24.756;2022-12-07T04:59:58;99768.94;;;3.59;100.00
6387;BME280;3226;42.162;24.756;2022-12-07T05:02:26;99765.06;;;3.51;100.00
6387;BME280;3226;42.162;24.756;2022-12-07T05:04:55;99754.06;;;3.29;100.00
6387;BME280;3226;42.162;24.756;2022-12-07T05:07:24;99777.72;;;3.39;100.00
6387;BME280;3226;42.162;24.756;2022-12-07T05:09:52;99753.84;;;3.16;100.00
6387;BME280;3226;42.162;24.756;2022-12-07T05:12:21;99779.88;;;3.13;100.00
6387;BME280;3226;42.162;24.756;2022-12-07T05:14:49;99750.72;;;2.92;100.00
6387;BME280;3226;42.162;24.756;2022-12-07T05:17:17;99775.69;;;2.93;100.00
6387;BME280;3226;42.162;24.756;2022-12-07T05:19:45;99760.53;;;2.85;100.00
6387;BME280;3226;42.162;24.756;2022-12-07T05:22:13;99774.16;;;2.89;100.00
6387;BME280;3226;42.162;24.756;2022-12-07T05:24:43;99777.97;;;2.99;100.00
6387;BME280;3226;42.162;24.756;2022-12-07T05:27:11;99776.28;;;2.98;100.00
6387;BME280;3226;42.162;24.756;2022-12-07T05:29:40;99768.81;;;2.92;100.00
6387;BME280;3226;42.162;24.756;2022-12-07T05:32:08;99780.91;;;2.92;100.00
6387;BME280;3226;42.162;24.756;2022-12-07T05:34:36;99787.94;;;3.07;100.00
6387;BME280;3226;42.162;24.756;2022-12-07T05:37:04;99792.13;;;3.27;100.00
6387;BME280;3226;42.162;24.756;2022-12-07T05:39:32;99783.66;;;3.24;100.00
6387;BME280;3226;42.162;24.756;2022-12-07T05:42:00;99787.53;;;3.15;100.00
6387;BME280;3226;42.162;24.756;2022-12-07T05:44:45;99779.41;;;3.23;100.00
6387;BME280;3226;42.162;24.756;2022-12-07T05:47:14;99780.75;;;3.47;100.00
6387;BME280;3226;42.162;24.756;2022-12-07T05:49:43;99745.31;;;3.14;100.00
6387;BME280;3226;42.162;24.756;2022-12-07T05:52:11;99784.06;;;3.33;100.00
6387;BME280;3226;42.162;24.756;2022-12-07T05:54:39;99779.16;;;3.45;100.00
6387;BME280;3226;42.162;24.756;2022-12-07T05:57:07;99784.88;;;3.52;100.00
6387;BME280;3226;42.162;24.756;2022-12-07T05:59:36;99772.84;;;3.33;100.00
6387;BME280;3226;42.162;24.756;2022-12-07T06:02:07;99783.66;;;3.41;100.00
6387;BME280;3226;42.162;24.756;2022-12-07T06:04:37;99765.22;;;3.47;100.00
6387;BME280;3226;42.162;24.756;2022-12-07T06:07:06;99786.38;;;3.73;100.00
6387;BME280;3226;42.162;24.756;2022-12-07T06:09:34;99784.84;;;3.85;100.00
6387;BME280;3226;42.162;24.756;2022-12-07T06:12:03;99786.78;;;3.82;100.00
6387;BME280;3226;42.162;24.756;2022-12-07T06:14:49;99783.56;;;4.10;100.00
6387;BME280;3226;42.162;24.756;2022-12-07T06:17:19;99783.66;;;4.09;99.91
6387;BME280;3226;42.162;24.756;2022-12-07T06:19:47;99756.94;;;3.74;100.00
6387;BME280;3226;42.162;24.756;2022-12-07T06:22:15;99791.81;;;3.85;100.00
6387;BME280;3226;42.162;24.756;2022-12-07T06:24:43;99767.56;;;3.86;100.00
6387;BME280;3226;42.162;24.756;2022-12-07T06:27:12;99786.84;;;4.14;100.00
6387;BME280;3226;42.162;24.756;2022-12-07T06:29:39;99790.50;;;4.42;99.92
6387;BME280;3226;42.162;24.756;2022-12-07T06:32:07;99788.44;;;4.48;98.42
6387;BME280;3226;42.162;24.756;2022-12-07T06:34:37;99786.00;;;4.61;98.17
6387;BME280;3226;42.162;24.756;2022-12-07T06:37:05;99788.53;;;4.63;96.94
6387;BME280;3226;42.162;24.756;2022-12-07T06:39:34;99783.94;;;4.52;97.25
6387;BME280;3226;42.162;24.756;2022-12-07T06:42:02;99792.34;;;4.72;96.67
6387;BME280;3226;42.162;24.756;2022-12-07T06:44:30;99788.03;;;4.87;94.58
6387;BME280;3226;42.162;24.756;2022-12-07T06:46:58;99791.53;;;4.71;94.48
6387;BME280;3226;42.162;24.756;2022-12-07T06:49:48;99784.16;;;4.63;94.00
6387;BME280;3226;42.162;24.756;2022-12-07T06:52:16;99784.13;;;4.80;94.03
6387;BME280;3226;42.162;24.756;2022-12-07T06:54:45;99796.31;;;4.94;93.80
6387;BME280;3226;42.162;24.756;2022-12-07T06:57:13;99793.38;;;4.69;94.74
6387;BME280;3226;42.162;24.756;2022-12-07T06:59:41;99792.44;;;4.54;95.51
6387;BME280;3226;42.162;24.756;2022-12-07T07:02:09;99794.69;;;4.76;95.66
6387;BME280;3226;42.162;24.756;2022-12-07T07:04:37;99793.56;;;4.97;95.46
6387;BME280;3226;42.162;24.756;2022-12-07T07:07:07;99787.63;;;4.95;95.49
6387;BME280;3226;42.162;24.756;2022-12-07T07:09:35;99776.88;;;5.01;94.67
6387;BME280;3226;42.162;24.756;2022-12-07T07:12:03;99779.31;;;5.34;93.05
6387;BME280;3226;42.162;24.756;2022-12-07T07:14:31;99774.28;;;5.31;92.04
6387;BME280;3226;42.162;24.756;2022-12-07T07:16:59;99781.41;;;5.42;91.97
6387;BME280;3226;42.162;24.756;2022-12-07T07:19:27;99790.91;;;5.58;91.51
6387;BME280;3226;42.162;24.756;2022-12-07T07:21:55;99765.84;;;5.42;91.21
6387;BME280;3226;42.162;24.756;2022-12-07T07:24:25;99781.72;;;5.52;91.88
6387;BME280;3226;42.162;24.756;2022-12-07T07:26:53;99789.44;;;5.54;92.08
6387;BME280;3226;42.162;24.756;2022-12-07T07:29:21;99787.50;;;5.72;92.51
6387;BME280;3226;42.162;24.756;2022-12-07T07:31:49;99786.91;;;5.52;93.50
6387;BME280;3226;42.162;24.756;2022-12-07T07:34:17;99782.91;;;5.46;93.90
6387;BME280;3226;42.162;24.756;2022-12-07T07:36:45;99783.31;;;5.69;94.22
6387;BME280;3226;42.162;24.756;2022-12-07T07:39:13;99769.38;;;5.70;92.75
6387;BME280;3226;42.162;24.756;2022-12-07T07:41:43;99797.03;;;5.71;92.01
6387;BME280;3226;42.162;24.756;2022-12-07T07:44:11;99794.06;;;5.48;93.30
6387;BME280;3226;42.162;24.756;2022-12-07T07:46:39;99811.34;;;5.78;93.51
6387;BME280;3226;42.162;24.756;2022-12-07T07:49:10;99806.56;;;6.01;91.76
6387;BME280;3226;42.162;24.756;2022-12-07T07:51:38;99691.72;;;5.07;92.64
6387;BME280;3226;42.162;24.756;2022-12-07T07:54:06;99798.34;;;5.78;92.98
6387;BME280;3226;42.162;24.756;2022-12-07T07:56:35;99804.50;;;6.06;92.18
6387;BME280;3226;42.162;24.756;2022-12-07T07:59:04;99806.72;;;5.84;92.68
6387;BME280;3226;42.162;24.756;2022-12-07T08:01:32;99802.59;;;5.79;92.57
6387;BME280;3226;42.162;24.756;2022-12-07T08:04:00;99807.72;;;5.81;92.34
6387;BME280;3226;42.162;24.756;2022-12-07T08:06:28;99805.59;;;5.88;91.98
6387;BME280;3226;42.162;24.756;2022-12-07T08:08:58;99801.34;;;5.87;91.98
6387;BME280;3226;42.162;24.756;2022-12-07T08:11:26;99807.72;;;5.81;91.71
6387;BME280;3226;42.162;24.756;2022-12-07T08:13:54;99800.97;;;5.93;91.04
6387;BME280;3226;42.162;24.756;2022-12-07T08:16:24;99796.88;;;6.03;90.48
6387;BME280;3226;42.162;24.756;2022-12-07T08:18:52;99804.41;;;6.08;90.61
6387;BME280;3226;42.162;24.756;2022-12-07T08:21:20;99803.06;;;6.30;89.83
6387;BME280;3226;42.162;24.756;2022-12-07T08:23:48;99801.47;;;6.56;89.17
6387;BME280;3226;42.162;24.756;2022-12-07T08:26:16;99805.00;;;6.83;87.87
6387;BME280;3226;42.162;24.756;2022-12-07T08:28:44;99802.03;;;7.02;85.96
6387;BME280;3226;42.162;24.756;2022-12-07T08:31:14;99798.41;;;7.17;85.30
6387;BME280;3226;42.162;24.756;2022-12-07T08:33:46;99799.16;;;7.32;85.06
6387;BME280;3226;42.162;24.756;2022-12-07T08:36:15;99802.59;;;7.33;84.96
6387;BME280;3226;42.162;24.756;2022-12-07T08:38:44;99807.19;;;7.42;83.68
6387;BME280;3226;42.162;24.756;2022-12-07T08:41:32;99801.31;;;7.13;84.10
6387;BME280;3226;42.162;24.756;2022-12-07T08:44:00;99798.34;;;6.91;84.75
6387;BME280;3226;42.162;24.756;2022-12-07T08:46:31;99793.91;;;7.06;84.69
6387;BME280;3226;42.162;24.756;2022-12-07T08:49:07;99789.50;;;6.94;85.86
6387;BME280;3226;42.162;24.756;2022-12-07T08:51:38;99776.97;;;7.27;85.22
6387;BME280;3226;42.162;24.756;2022-12-07T08:54:11;99782.38;;;7.49;84.59
6387;BME280;3226;42.162;24.756;2022-12-07T08:56:41;99785.63;;;7.53;85.80
6387;BME280;3226;42.162;24.756;2022-12-07T08:59:14;99767.69;;;7.87;83.42
6387;BME280;3226;42.162;24.756;2022-12-07T09:01:42;99775.06;;;8.06;82.23
6387;BME280;3226;42.162;24.756;2022-12-07T09:04:12;99773.47;;;8.41;81.98
6387;BME280;3226;42.162;24.756;2022-12-07T09:06:40;99762.94;;;8.43;81.30
6387;BME280;3226;42.162;24.756;2022-12-07T09:09:09;99764.56;;;8.32;81.70
6387;BME280;3226;42.162;24.756;2022-12-07T09:11:38;99759.75;;;8.26;82.58
6387;BME280;3226;42.162;24.756;2022-12-07T09:14:09;99743.31;;;8.50;80.40
6387;BME280;3226;42.162;24.756;2022-12-07T09:16:37;99739.88;;;8.74;79.37
6387;BME280;3226;42.162;24.756;2022-12-07T09:19:05;99736.69;;;8.57;80.17
6387;BME280;3226;42.162;24.756;2022-12-07T09:21:34;99737.25;;;8.12;81.53
6387;BME280;3226;42.162;24.756;2022-12-07T09:24:03;99711.50;;;8.07;81.28
6387;BME280;3226;42.162;24.756;2022-12-07T09:26:31;99731.25;;;8.60;80.56
6387;BME280;3226;42.162;24.756;2022-12-07T09:28:59;99718.81;;;8.39;80.14
6387;BME280;3226;42.162;24.756;2022-12-07T09:31:27;99718.22;;;8.47;80.32
6387;BME280;3226;42.162;24.756;2022-12-07T09:33:55;99725.44;;;8.92;80.18
6387;BME280;3226;42.162;24.756;2022-12-07T09:36:24;99721.22;;;9.03;79.40
6387;BME280;3226;42.162;24.756;2022-12-07T09:38:53;99708.91;;;8.80;79.14
6387;BME280;3226;42.162;24.756;2022-12-07T09:41:23;99698.25;;;8.59;78.77
6387;BME280;3226;42.162;24.756;2022-12-07T09:43:52;99708.47;;;8.62;79.46
6387;BME280;3226;42.162;24.756;2022-12-07T09:46:20;99697.63;;;8.80;79.00
6387;BME280;3226;42.162;24.756;2022-12-07T09:48:49;99695.03;;;8.91;79.72
6387;BME280;3226;42.162;24.756;2022-12-07T09:51:20;99691.94;;;8.86;79.78
6387;BME280;3226;42.162;24.756;2022-12-07T09:53:53;99691.16;;;8.97;78.57
6387;BME280;3226;42.162;24.756;2022-12-07T09:56:22;99694.47;;;8.99;78.08
6387;BME280;3226;42.162;24.756;2022-12-07T09:58:59;99689.94;;;8.90;78.48
6387;BME280;3226;42.162;24.756;2022-12-07T10:01:29;99689.50;;;8.60;79.28
6387;BME280;3226;42.162;24.756;2022-12-07T10:04:11;99694.47;;;8.88;79.35
6387;BME280;3226;42.162;24.756;2022-12-07T10:06:41;99696.88;;;9.14;77.94
6387;BME280;3226;42.162;24.756;2022-12-07T10:09:12;99677.47;;;8.82;78.59
6387;BME280;3226;42.162;24.756;2022-12-07T10:12:00;99689.56;;;8.83;77.67
6387;BME280;3226;42.162;24.756;2022-12-07T10:14:30;99681.16;;;8.55;78.61
6387;BME280;3226;42.162;24.756;2022-12-07T10:17:32;99672.53;;;8.66;78.01
6387;BME280;3226;42.162;24.756;2022-12-07T10:20:14;99680.69;;;8.86;77.59
6387;BME280;3226;42.162;24.756;2022-12-07T10:22:55;99670.03;;;9.11;76.35
6387;BME280;3226;42.162;24.756;2022-12-07T10:25:28;99664.69;;;9.24;76.02
6387;BME280;3226;42.162;24.756;2022-12-07T10:28:12;99659.94;;;9.30;75.04
6387;BME280;3226;42.162;24.756;2022-12-07T10:30:56;99654.38;;;9.46;74.43
6387;BME280;3226;42.162;24.756;2022-12-07T10:33:31;99650.34;;;9.30;75.19
6387;BME280;3226;42.162;24.756;2022-12-07T10:36:00;99646.16;;;9.16;76.89
6387;BME280;3226;42.162;24.756;2022-12-07T10:38:28;99646.50;;;9.11;76.95
6387;BME280;3226;42.162;24.756;2022-12-07T10:41:07;99652.81;;;9.20;76.57
6387;BME280;3226;42.162;24.756;2022-12-07T10:43:35;99652.34;;;9.61;75.58
6387;BME280;3226;42.162;24.756;2022-12-07T10:46:38;99654.31;;;9.91;74.90
6387;BME280;3226;42.162;24.756;2022-12-07T10:49:31;99658.25;;;9.86;73.74
6387;BME280;3226;42.162;24.756;2022-12-07T10:52:08;99662.78;;;9.83;73.14
6387;BME280;3226;42.162;24.756;2022-12-07T10:54:44;99660.16;;;9.72;74.24
6387;BME280;3226;42.162;24.756;2022-12-07T10:57:26;99652.66;;;9.90;74.12
6387;BME280;3226;42.162;24.756;2022-12-07T11:00:08;99648.50;;;9.88;75.28
6387;BME280;3226;42.162;24.756;2022-12-07T11:02:53;99647.81;;;9.74;75.24
6387;BME280;3226;42.162;24.756;2022-12-07T11:05:31;99647.00;;;10.06;73.98
6387;BME280;3226;42.162;24.756;2022-12-07T11:08:13;99619.34;;;9.92;74.52
6387;BME280;3226;42.162;24.756;2022-12-07T11:10:50;99638.81;;;10.32;73.21
6387;BME280;3226;42.162;24.756;2022-12-07T11:13:38;99628.94;;;10.03;73.82
6387;BME280;3226;42.162;24.756;2022-12-07T11:16:23;99611.22;;;9.63;73.94
6387;BME280;3226;42.162;24.756;2022-12-07T11:18:59;99625.28;;;9.39;74.34
6387;BME280;3226;42.162;24.756;2022-12-07T11:21:38;99622.91;;;9.13;76.18
6387;BME280;3226;42.162;24.756;2022-12-07T11:24:12;99623.13;;;9.44;75.54
6387;BME280;3226;42.162;24.756;2022-12-07T11:27:01;99623.31;;;9.64;74.71
6387;BME280;3226;42.162;24.756;2022-12-07T11:29:47;99610.78;;;9.46;74.98
6387;BME280;3226;42.162;24.756;2022-12-07T11:32:22;99618.72;;;8.99;77.33
6387;BME280;3226;42.162;24.756;2022-12-07T11:35:01;99606.88;;;9.29;76.49
6387;BME280;3226;42.162;24.756;2022-12-07T11:37:35;99599.78;;;9.64;75.29
6387;BME280;3226;42.162;24.756;2022-12-07T11:40:13;99597.09;;;9.43;75.44
6387;BME280;3226;42.162;24.756;2022-12-07T11:42:45;99589.13;;;9.55;75.40
6387;BME280;3226;42.162;24.756;2022-12-07T11:45:20;99593.84;;;9.62;75.42
6387;BME280;3226;42.162;24.756;2022-12-07T11:47:54;99575.34;;;9.53;75.15
6387;BME280;3226;42.162;24.756;2022-12-07T11:50:32;99597.63;;;9.69;74.37
6387;BME280;3226;42.162;24.756;2022-12-07T11:53:04;99573.28;;;9.68;74.13
6387;BME280;3226;42.162;24.756;2022-12-07T11:55:42;99590.03;;;9.77;74.40
6387;BME280;3226;42.162;24.756;2022-12-07T11:58:35;99583.59;;;9.81;73.60
6387;BME280;3226;42.162;24.756;2022-12-07T12:01:17;99579.31;;;9.80;74.09
6387;BME280;3226;42.162;24.756;2022-12-07T12:03:51;99584.03;;;9.43;75.02
6387;BME280;3226;42.162;24.756;2022-12-07T12:06:21;99574.38;;;9.54;74.86
6387;BME280;3226;42.162;24.756;2022-12-07T12:08:55;99569.31;;;9.86;74.47
6387;BME280;3226;42.162;24.756;2022-12-07T12:11:56;99561.75;;;9.71;74.52
6387;BME280;3226;42.162;24.756;2022-12-07T12:14:55;99564.91;;;9.86;73.88
6387;BME280;3226;42.162;24.756;2022-12-07T12:17:44;99570.75;;;10.11;72.73
6387;BME280;3226;42.162;24.756;2022-12-07T12:20:21;99571.34;;;10.15;72.58
6387;BME280;3226;42.162;24.756;2022-12-07T12:22:54;99568.31;;;10.31;72.61
6387;BME280;3226;42.162;24.756;2022-12-07T12:25:26;99562.81;;;10.34;71.73
6387;BME280;3226;42.162;24.756;2022-12-07T12:27:57;99565.97;;;10.49;71.26
6387;BME280;3226;42.162;24.756;2022-12-07T12:30:32;99564.75;;;10.53;71.27
6387;BME280;3226;42.162;24.756;2022-12-07T12:33:04;99565.03;;;10.60;71.12
6387;BME280;3226;42.162;24.756;2022-12-07T12:35:35;99552.44;;;10.44;72.11
6387;BME280;3226;42.162;24.756;2022-12-07T12:38:30;99547.66;;;10.37;72.31
6387;BME280;3226;42.162;24.756;2022-12-07T12:41:00;99536.56;;;10.24;71.77
6387;BME280;3226;42.162;24.756;2022-12-07T12:43:50;99547.22;;;10.32;71.84
6387;BME280;3226;42.162;24.756;2022-12-07T12:46:50;99540.47;;;10.30;72.37
6387;BME280;3226;42.162;24.756;2022-12-07T12:49:41;99536.63;;;9.80;73.90
6387;BME280;3226;42.162;24.756;2022-12-07T12:58:37;99536.56;;;10.03;73.88
6387;BME280;3226;42.162;24.756;2022-12-07T13:01:36;99528.88;;;9.90;73.77
6387;BME280;3226;42.162;24.756;2022-12-07T13:04:47;99538.09;;;9.73;74.96
6387;BME280;3226;42.162;24.756;2022-12-07T13:07:52;99527.34;;;9.54;75.82
6387;BME280;3226;42.162;24.756;2022-12-07T13:10:38;99529.78;;;9.67;74.92
6387;BME280;3226;42.162;24.756;2022-12-07T13:13:31;99529.63;;;9.80;74.27
6387;BME280;3226;42.162;24.756;2022-12-07T13:22:45;99529.50;;;10.03;73.15
6387;BME280;3226;42.162;24.756;2022-12-07T13:25:21;99522.06;;;9.98;72.77
6387;BME280;3226;42.162;24.756;2022-12-07T13:27:57;99538.00;;;9.95;73.17
6387;BME280;3226;42.162;24.756;2022-12-07T13:30:26;99541.47;;;9.52;74.00
6387;BME280;3226;42.162;24.756;2022-12-07T13:32:57;99535.69;;;9.37;74.79
6387;BME280;3226;42.162;24.756;2022-12-07T13:35:33;99536.38;;;9.50;74.33
6387;BME280;3226;42.162;24.756;2022-12-07T13:38:26;99534.97;;;9.79;73.33
6387;BME280;3226;42.162;24.756;2022-12-07T13:41:04;99535.81;;;9.79;72.87
6387;BME280;3226;42.162;24.756;2022-12-07T13:43:42;99534.34;;;9.87;72.99
6387;BME280;3226;42.162;24.756;2022-12-07T13:46:11;99534.47;;;9.85;72.56
6387;BME280;3226;42.162;24.756;2022-12-07T13:48:45;99538.84;;;9.52;74.04
6387;BME280;3226;42.162;24.756;2022-12-07T13:51:20;99530.44;;;9.37;74.40
6387;BME280;3226;42.162;24.756;2022-12-07T13:53:52;99534.31;;;9.65;72.99
6387;BME280;3226;42.162;24.756;2022-12-07T13:56:22;99544.72;;;9.44;73.89
6387;BME280;3226;42.162;24.756;2022-12-07T13:58:54;99539.91;;;9.61;73.59
6387;BME280;3226;42.162;24.756;2022-12-07T14:01:24;99546.78;;;9.73;72.84